Hovedside
METAR-TAF:

METAR-TAF

Lufthavner :

Hemavan, Sverige

Hemavan flyplass

breddegrad: 65-48-22N, lengdegrad: 015-04-58E, høyde over havet: 458 m

Gjeldene værobservasjon

Denne rapporten ble laget for 20 minutter siden, klokken 05:50 UTC
Flau vind
Temperatur -6°C
Luftfuktighet 93%
Trykk 1014 hPa
Sikt: 3600 m
lett snø

METAR: ESUT 240550Z AUTO 00000KT 3600 -SN FEW015/// SCT019/// BKN027/// M06/M07 Q1014 RESN

Tid: 07:10 (06:10 UTC)


TAF: fraværende

Værobservasjoner og værvarsel for over 4000 flyplasser (METAR- og TAF-rapporter).

Tilgjengelige stasjoner er representert av de røde og gule prikkene på kartet.

Hold musepekeren over prikken for å se navnet på stasjonen.

Klikk så for å se værobservasjoner og -varsler.

For å forandre kartet kan du klikke på den grønne knappen med svart kryss for å zoome inn, på den grønne knappen med strek for å zoome ut, eller på de grønne pilene for å se tilstøtende kart.


METAR-TAF: